createdAt,value
2018-12-15T00:01:18.127Z,24.43
2018-12-15T00:03:47.013Z,23.37
2018-12-15T00:06:16.197Z,23.57
2018-12-15T00:08:45.167Z,26.53
2018-12-15T00:11:13.960Z,21.83
2018-12-15T00:13:42.738Z,23.87
2018-12-15T00:16:11.556Z,21.93
2018-12-15T00:18:40.760Z,20.43
2018-12-15T00:21:09.657Z,21.73
2018-12-15T00:23:38.473Z,22.00
2018-12-15T00:26:07.263Z,24.67
2018-12-15T00:28:36.126Z,23.30
2018-12-15T00:31:04.962Z,23.77
2018-12-15T00:33:33.774Z,24.30
2018-12-15T00:36:02.560Z,21.37
2018-12-15T00:38:31.505Z,22.95
2018-12-15T00:41:00.283Z,20.87
2018-12-15T00:43:29.070Z,22.45
2018-12-15T00:45:57.899Z,24.43
2018-12-15T00:48:26.679Z,24.60
2018-12-15T00:50:55.482Z,24.37
2018-12-15T00:53:24.294Z,23.43
2018-12-15T00:55:53.080Z,25.87
2018-12-15T00:58:21.910Z,19.70
2018-12-15T01:00:50.735Z,24.70
2018-12-15T01:03:19.995Z,24.53
2018-12-15T01:05:48.893Z,22.67
2018-12-15T01:08:17.702Z,23.00
2018-12-15T01:10:46.868Z,22.03
2018-12-15T01:13:16.988Z,19.40
2018-12-15T01:15:46.107Z,18.43
2018-12-15T01:18:15.590Z,17.33
2018-12-15T01:20:44.467Z,21.93
2018-12-15T01:23:13.326Z,18.97
2018-12-15T01:25:42.437Z,17.50
2018-12-15T01:28:11.230Z,17.77
2018-12-15T01:30:40.055Z,16.67
2018-12-15T01:33:08.843Z,16.43
2018-12-15T01:35:37.644Z,16.67
2018-12-15T01:38:06.455Z,15.33
2018-12-15T01:40:35.242Z,16.67
2018-12-15T01:43:04.038Z,16.93
2018-12-15T01:45:32.834Z,18.23
2018-12-15T01:48:01.794Z,17.07
2018-12-15T01:50:30.578Z,18.40
2018-12-15T01:52:59.378Z,17.00
2018-12-15T01:55:28.188Z,17.90
2018-12-15T01:57:57.320Z,18.43
2018-12-15T02:00:26.234Z,16.57
2018-12-15T02:02:55.020Z,22.53
2018-12-15T02:05:23.810Z,17.87
2018-12-15T02:07:53.013Z,17.87
2018-12-15T02:10:22.122Z,20.70
2018-12-15T02:12:50.940Z,19.40
2018-12-15T02:15:19.750Z,18.17
2018-12-15T02:17:48.603Z,17.97
2018-12-15T02:20:17.390Z,15.57
2018-12-15T02:22:46.202Z,15.70
2018-12-15T02:25:15.030Z,15.63
2018-12-15T02:27:43.859Z,16.70
2018-12-15T02:30:12.707Z,17.80
2018-12-15T02:32:41.524Z,18.80
2018-12-15T02:35:10.331Z,18.87
2018-12-15T02:37:39.113Z,17.07
2018-12-15T02:40:07.934Z,15.03
2018-12-15T02:42:36.807Z,16.60
2018-12-15T02:45:05.718Z,15.87
2018-12-15T02:47:41.167Z,20.20
2018-12-15T02:50:05.820Z,19.33
2018-12-15T02:52:34.622Z,19.83
2018-12-15T02:55:03.733Z,17.80
2018-12-15T02:57:32.520Z,17.83
2018-12-15T03:00:01.363Z,17.30
2018-12-15T03:02:30.163Z,17.97
2018-12-15T03:04:59.311Z,18.43
2018-12-15T03:07:28.230Z,20.12
2018-12-15T03:09:57.017Z,23.27
2018-12-15T03:12:25.812Z,19.45
2018-12-15T03:14:54.608Z,19.87
2018-12-15T03:17:23.391Z,19.90
2018-12-15T03:19:52.612Z,17.67
2018-12-15T03:22:21.498Z,18.17
2018-12-15T03:24:50.291Z,20.00
2018-12-15T03:27:19.102Z,20.03
2018-12-15T03:29:47.899Z,17.00
2018-12-15T03:32:16.761Z,21.63
2018-12-15T03:34:45.526Z,18.53
2018-12-15T03:37:14.699Z,17.63
2018-12-15T03:39:43.848Z,16.67
2018-12-15T03:42:12.762Z,16.30
2018-12-15T03:44:41.743Z,17.47
2018-12-15T03:47:10.579Z,18.50
2018-12-15T03:49:39.356Z,17.67
2018-12-15T03:52:08.420Z,18.00
2018-12-15T03:54:37.208Z,16.63
2018-12-15T03:57:05.994Z,18.83
2018-12-15T03:59:34.966Z,16.97
2018-12-15T04:02:03.947Z,15.97
2018-12-15T04:04:33.437Z,18.62
2018-12-15T04:07:02.246Z,19.20
2018-12-15T04:09:31.036Z,20.72
2018-12-15T04:11:59.866Z,18.30
2018-12-15T04:14:28.651Z,18.30
2018-12-15T04:16:57.462Z,17.20
2018-12-15T04:19:26.393Z,17.27
2018-12-15T04:21:59.656Z,20.77
2018-12-15T04:24:28.478Z,18.07
2018-12-15T04:26:57.266Z,16.93
2018-12-15T04:29:26.076Z,20.07
2018-12-15T04:31:55.098Z,17.50
2018-12-15T04:34:24.184Z,19.40
2018-12-15T04:36:53.006Z,19.40
2018-12-15T04:39:21.791Z,18.67
2018-12-15T04:41:50.562Z,19.13
2018-12-15T04:44:20.127Z,17.20
2018-12-15T04:46:49.080Z,20.20
2018-12-15T04:49:17.897Z,21.27
2018-12-15T04:51:46.694Z,22.80
2018-12-15T04:54:15.488Z,17.90
2018-12-15T04:56:44.282Z,19.77
2018-12-15T04:59:13.163Z,17.87
2018-12-15T05:01:42.107Z,19.80
2018-12-15T05:04:10.891Z,17.40
2018-12-15T05:06:39.700Z,19.77
2018-12-15T05:09:08.771Z,21.50
2018-12-15T05:11:37.594Z,16.97
2018-12-15T05:14:06.410Z,23.07
2018-12-15T05:16:35.446Z,17.17
2018-12-15T05:19:04.236Z,17.77
2018-12-15T05:21:33.055Z,16.83
2018-12-15T05:24:01.882Z,19.10
2018-12-15T05:26:30.699Z,18.30
2018-12-15T05:28:59.493Z,20.90
2018-12-15T05:31:28.281Z,16.73
2018-12-15T05:33:57.066Z,21.13
2018-12-15T05:36:25.895Z,19.87
2018-12-15T05:38:54.724Z,20.80
2018-12-15T05:41:23.510Z,19.73
2018-12-15T05:43:52.562Z,21.40
2018-12-15T05:46:21.339Z,18.13
2018-12-15T05:48:50.178Z,21.30
2018-12-15T05:51:19.855Z,19.00
2018-12-15T05:53:48.678Z,24.03
2018-12-15T05:56:17.467Z,17.57
2018-12-15T05:58:46.263Z,20.33
2018-12-15T06:01:15.068Z,21.23
2018-12-15T06:03:43.831Z,17.07
2018-12-15T06:06:12.658Z,22.37
2018-12-15T06:08:41.426Z,20.23
2018-12-15T06:11:10.246Z,16.37
2018-12-15T06:13:39.058Z,18.70
2018-12-15T06:16:07.887Z,18.50
2018-12-15T06:18:36.683Z,15.37
2018-12-15T06:21:05.473Z,18.70
2018-12-15T06:23:34.291Z,19.40
2018-12-15T06:26:03.081Z,18.77
2018-12-15T06:28:31.999Z,17.93
2018-12-15T06:31:00.794Z,21.53
2018-12-15T06:33:29.581Z,19.45
2018-12-15T06:35:58.406Z,18.73
2018-12-15T06:38:27.190Z,23.60
2018-12-15T06:40:56.392Z,20.33
2018-12-15T06:43:25.527Z,16.63
2018-12-15T06:45:54.578Z,18.13
2018-12-15T06:48:23.401Z,22.40
2018-12-15T06:50:52.198Z,19.83
2018-12-15T06:53:21.057Z,21.27
2018-12-15T06:55:49.874Z,15.47
2018-12-15T06:58:19.395Z,19.87
2018-12-15T07:00:48.298Z,15.17
2018-12-15T07:03:17.094Z,17.53
2018-12-15T07:05:46.259Z,18.47
2018-12-15T07:08:15.135Z,20.07
2018-12-15T07:10:43.906Z,18.53
2018-12-15T07:13:12.755Z,23.07
2018-12-15T07:15:41.574Z,18.93
2018-12-15T07:18:10.359Z,22.73
2018-12-15T07:20:39.179Z,17.73
2018-12-15T07:23:07.994Z,22.70
2018-12-15T07:25:37.261Z,26.97
2018-12-15T07:28:06.062Z,18.67
2018-12-15T07:30:35.320Z,19.60
2018-12-15T07:33:04.103Z,18.30
2018-12-15T07:35:32.971Z,17.87
2018-12-15T07:38:01.788Z,16.00
2018-12-15T07:40:30.587Z,21.97
2018-12-15T07:42:59.412Z,16.90
2018-12-15T07:45:28.635Z,20.27
2018-12-15T07:47:57.523Z,22.13
2018-12-15T07:50:26.322Z,20.37
2018-12-15T07:52:55.154Z,19.87
2018-12-15T07:55:23.907Z,19.03
2018-12-15T07:57:52.710Z,20.90
2018-12-15T08:00:21.510Z,20.33
2018-12-15T08:02:50.736Z,19.70
2018-12-15T08:05:20.374Z,19.40
2018-12-15T08:07:49.239Z,21.23
2018-12-15T08:10:22.356Z,23.00
2018-12-15T08:13:00.311Z,20.43
2018-12-15T08:15:29.234Z,22.97
2018-12-15T08:17:58.155Z,21.30
2018-12-15T08:20:26.919Z,20.48
2018-12-15T08:22:55.822Z,23.17
2018-12-15T08:25:24.658Z,20.23
2018-12-15T08:27:53.444Z,19.87
2018-12-15T08:30:22.218Z,24.23
2018-12-15T08:32:51.403Z,20.33
2018-12-15T08:35:20.639Z,17.43
2018-12-15T08:37:49.518Z,21.07
2018-12-15T08:40:19.114Z,23.47
2018-12-15T08:42:47.971Z,25.43
2018-12-15T08:45:16.751Z,21.80
2018-12-15T08:47:45.779Z,24.40
2018-12-15T08:50:14.597Z,22.80
2018-12-15T08:52:43.430Z,30.43
2018-12-15T08:55:12.285Z,22.53
2018-12-15T08:57:43.320Z,20.37
2018-12-15T09:00:12.283Z,19.97
2018-12-15T09:02:41.072Z,20.90
2018-12-15T09:05:10.066Z,24.27
2018-12-15T09:07:38.858Z,22.77
2018-12-15T09:10:07.660Z,19.77
2018-12-15T09:12:36.466Z,19.40
2018-12-15T09:15:05.331Z,22.37
2018-12-15T09:17:34.115Z,19.97
2018-12-15T09:20:03.124Z,24.17
2018-12-15T09:22:32.340Z,20.75
2018-12-15T09:25:01.216Z,21.37
2018-12-15T09:27:30.014Z,25.63
2018-12-15T09:29:58.779Z,22.37
2018-12-15T09:32:27.614Z,18.50
2018-12-15T09:34:56.414Z,22.40
2018-12-15T09:37:25.178Z,23.67
2018-12-15T09:39:54.002Z,21.80
2018-12-15T09:42:22.782Z,23.93
2018-12-15T09:44:51.590Z,24.40
2018-12-15T09:47:20.416Z,20.60
2018-12-15T09:49:49.264Z,21.90
2018-12-15T09:52:18.932Z,22.30
2018-12-15T09:54:47.710Z,22.30
2018-12-15T09:57:16.497Z,23.30
2018-12-15T09:59:45.283Z,22.70
2018-12-15T10:02:14.102Z,20.93
2018-12-15T10:04:43.050Z,21.97
2018-12-15T10:07:11.844Z,19.47
2018-12-15T10:09:40.671Z,20.03
2018-12-15T10:12:09.463Z,24.33
2018-12-15T10:14:38.265Z,27.90
2018-12-15T10:17:07.066Z,24.53
2018-12-15T10:19:35.859Z,20.67
2018-12-15T10:22:04.654Z,22.07
2018-12-15T10:24:33.475Z,24.03
2018-12-15T10:27:02.267Z,25.13
2018-12-15T10:29:36.398Z,23.00
2018-12-15T10:32:10.647Z,32.63
2018-12-15T10:34:39.605Z,27.03
2018-12-15T10:37:08.587Z,26.37
2018-12-15T10:39:37.401Z,27.80
2018-12-15T10:42:06.233Z,27.43
2018-12-15T10:44:35.055Z,25.90
2018-12-15T10:47:03.982Z,26.13
2018-12-15T10:49:32.942Z,37.13
2018-12-15T10:52:01.944Z,24.93
2018-12-15T10:54:30.737Z,27.07
2018-12-15T10:56:59.615Z,24.20
2018-12-15T10:59:28.620Z,23.67
2018-12-15T11:01:57.450Z,27.80
2018-12-15T11:04:26.227Z,27.98
2018-12-15T11:06:55.018Z,22.00
2018-12-15T11:09:23.857Z,28.65
2018-12-15T11:11:52.652Z,29.63
2018-12-15T11:14:21.432Z,27.23
2018-12-15T11:16:50.226Z,28.30
2018-12-15T11:19:19.015Z,25.37
2018-12-15T11:21:48.026Z,26.47
2018-12-15T11:24:16.938Z,26.83
2018-12-15T11:26:45.733Z,31.70
2018-12-15T11:29:14.531Z,33.07
2018-12-15T11:31:43.378Z,28.97
2018-12-15T11:34:12.195Z,28.93
2018-12-15T11:36:41.058Z,28.67
2018-12-15T11:39:09.866Z,26.90
2018-12-15T11:41:38.799Z,30.83
2018-12-15T11:44:07.906Z,32.10
2018-12-15T11:46:36.770Z,23.77
2018-12-15T11:49:05.614Z,26.73
2018-12-15T11:51:34.840Z,31.43
2018-12-15T11:54:03.746Z,29.73
2018-12-15T11:56:32.912Z,29.50
2018-12-15T11:59:01.899Z,31.57
2018-12-15T12:01:30.906Z,25.37
2018-12-15T12:03:59.687Z,24.37
2018-12-15T12:06:28.471Z,31.73
2018-12-15T12:08:57.268Z,27.57
2018-12-15T12:11:26.111Z,23.30
2018-12-15T12:14:00.325Z,31.13
2018-12-15T12:16:25.907Z,38.90
2018-12-15T12:18:55.284Z,28.87
2018-12-15T12:21:24.106Z,28.13
2018-12-15T12:23:52.902Z,30.37
2018-12-15T12:26:22.127Z,30.17
2018-12-15T12:28:51.026Z,25.47
2018-12-15T12:31:19.956Z,25.57
2018-12-15T12:33:49.084Z,27.43
2018-12-15T12:36:18.946Z,29.17
2018-12-15T12:38:47.783Z,30.97
2018-12-15T12:41:16.618Z,31.63
2018-12-15T12:43:45.755Z,32.87
2018-12-15T12:46:14.947Z,29.63
2018-12-15T12:48:43.747Z,31.37
2018-12-15T12:51:12.596Z,29.73
2018-12-15T12:53:41.418Z,20.83
2018-12-15T12:56:10.265Z,22.83
2018-12-15T12:58:39.027Z,28.40
2018-12-15T13:01:07.814Z,30.17
2018-12-15T13:03:36.661Z,25.87
2018-12-15T13:06:06.359Z,28.17
2018-12-15T13:08:36.559Z,35.15
2018-12-15T13:11:05.393Z,36.57
2018-12-15T13:13:34.294Z,34.70
2018-12-15T13:16:03.066Z,28.40
2018-12-15T13:18:31.907Z,29.90
2018-12-15T13:21:00.714Z,39.37
2018-12-15T13:23:29.498Z,33.80
2018-12-15T13:25:58.319Z,34.87
2018-12-15T13:28:27.170Z,34.83
2018-12-15T13:30:59.395Z,36.30
2018-12-15T13:33:32.355Z,34.73
2018-12-15T13:36:01.282Z,33.37
2018-12-15T13:38:30.147Z,39.40
2018-12-15T13:41:01.311Z,32.03
2018-12-15T13:43:30.235Z,38.67
2018-12-15T13:45:59.073Z,34.60
2018-12-15T13:48:27.918Z,35.50
2018-12-15T13:50:56.708Z,43.00
2018-12-15T13:53:25.537Z,30.83
2018-12-15T13:55:54.355Z,43.70
2018-12-15T13:58:23.161Z,35.20
2018-12-15T14:00:51.990Z,39.40
2018-12-15T14:03:20.958Z,36.70
2018-12-15T14:05:49.854Z,37.77
2018-12-15T14:08:19.008Z,32.20
2018-12-15T14:10:47.959Z,32.37
2018-12-15T14:13:16.782Z,34.67
2018-12-15T14:15:45.642Z,39.33
2018-12-15T14:18:14.791Z,36.43
2018-12-15T14:20:43.599Z,37.00
2018-12-15T14:23:12.586Z,36.80
2018-12-15T14:25:41.367Z,37.60
2018-12-15T14:28:10.285Z,35.73
2018-12-15T14:30:39.114Z,35.50
2018-12-15T14:33:07.892Z,37.63
2018-12-15T14:35:36.698Z,37.43
2018-12-15T14:38:05.510Z,40.87
2018-12-15T14:40:34.379Z,33.10
2018-12-15T14:43:03.198Z,42.93
2018-12-15T14:45:31.993Z,41.20
2018-12-15T14:48:00.851Z,33.97
2018-12-15T14:50:29.666Z,33.50
2018-12-15T14:52:58.530Z,41.00
2018-12-15T14:55:27.427Z,37.10
2018-12-15T14:57:56.858Z,41.37
2018-12-15T15:00:25.682Z,36.70
2018-12-15T15:02:54.539Z,39.87
2018-12-15T15:05:23.329Z,44.70
2018-12-15T15:07:52.347Z,37.63
2018-12-15T15:10:21.123Z,41.97
2018-12-15T15:12:50.002Z,48.00
2018-12-15T15:15:18.831Z,33.10
2018-12-15T15:17:47.650Z,37.00
2018-12-15T15:20:16.675Z,32.30
2018-12-15T15:22:45.538Z,33.67
2018-12-15T15:25:14.319Z,40.40
2018-12-15T15:27:43.759Z,28.90
2018-12-15T15:30:12.719Z,45.03
2018-12-15T15:32:42.252Z,35.87
2018-12-15T15:35:11.182Z,33.53
2018-12-15T15:37:40.034Z,35.03
2018-12-15T15:40:08.966Z,35.10
2018-12-15T15:42:37.832Z,31.37
2018-12-15T15:45:06.799Z,39.50
2018-12-15T15:47:35.582Z,34.17
2018-12-15T15:50:04.653Z,27.23
2018-12-15T15:52:33.475Z,24.13
2018-12-15T15:55:02.300Z,28.13
2018-12-15T15:57:31.131Z,26.45
2018-12-15T15:59:59.918Z,34.27
2018-12-15T16:02:29.123Z,39.50
2018-12-15T16:04:58.012Z,38.40
2018-12-15T16:07:26.808Z,24.23
2018-12-15T16:09:55.615Z,28.17
2018-12-15T16:12:24.454Z,23.10
2018-12-15T16:14:53.223Z,22.13
2018-12-15T16:17:22.084Z,26.77
2018-12-15T16:19:50.894Z,27.50
2018-12-15T16:22:20.235Z,19.67
2018-12-15T16:24:49.417Z,22.83
2018-12-15T16:27:18.339Z,22.13
2018-12-15T16:29:47.186Z,25.33
2018-12-15T16:32:16.024Z,24.10
2018-12-15T16:34:44.998Z,21.47
2018-12-15T16:37:13.854Z,26.50
2018-12-15T16:39:42.611Z,32.33
2018-12-15T16:42:11.449Z,25.27
2018-12-15T16:44:40.326Z,21.93
2018-12-15T16:47:09.180Z,31.70
2018-12-15T16:49:38.104Z,30.15
2018-12-15T16:52:07.047Z,23.10
2018-12-15T16:54:35.917Z,24.03
2018-12-15T16:57:04.814Z,25.83
2018-12-15T16:59:33.589Z,23.57
2018-12-15T17:02:02.475Z,26.17
2018-12-15T17:04:31.301Z,17.97
2018-12-15T17:07:00.199Z,28.90
2018-12-15T17:09:29.485Z,21.57
2018-12-15T17:11:58.315Z,22.10
2018-12-15T17:14:27.103Z,18.13
2018-12-15T17:16:55.942Z,28.73
2018-12-15T17:19:24.717Z,19.23
2018-12-15T17:21:53.560Z,23.63
2018-12-15T17:24:22.355Z,23.73
2018-12-15T17:26:51.250Z,25.37
2018-12-15T17:29:20.095Z,24.40
2018-12-15T17:31:48.927Z,31.27
2018-12-15T17:34:17.713Z,24.90
2018-12-15T17:36:46.507Z,33.43
2018-12-15T17:39:15.435Z,19.50
2018-12-15T17:41:44.274Z,25.47
2018-12-15T17:44:13.148Z,28.20
2018-12-15T17:46:41.982Z,23.40
2018-12-15T17:49:11.143Z,27.80
2018-12-15T17:51:40.108Z,23.77
2018-12-15T17:54:08.901Z,21.60
2018-12-15T17:56:37.746Z,29.73
2018-12-15T17:59:06.523Z,20.35
2018-12-15T18:01:35.354Z,21.73
2018-12-15T18:04:04.182Z,26.73
2018-12-15T18:06:33.008Z,18.55
2018-12-15T18:09:01.837Z,27.50
2018-12-15T18:11:30.619Z,29.10
2018-12-15T18:13:59.515Z,20.17
2018-12-15T18:16:28.328Z,23.80
2018-12-15T18:18:57.362Z,22.90
2018-12-15T18:21:26.197Z,21.00
2018-12-15T18:23:55.000Z,25.43
2018-12-15T18:26:23.898Z,25.80
2018-12-15T18:28:52.718Z,27.97
2018-12-15T18:31:21.692Z,21.23
2018-12-15T18:33:50.883Z,20.40
2018-12-15T18:36:19.890Z,19.27
2018-12-15T18:38:48.862Z,20.63
2018-12-15T18:41:18.172Z,23.00
2018-12-15T18:43:47.016Z,27.57
2018-12-15T18:46:15.830Z,23.93
2018-12-15T18:48:44.603Z,23.27
2018-12-15T18:51:16.335Z,25.23
2018-12-15T18:53:44.338Z,23.17
2018-12-15T18:56:13.171Z,23.70
2018-12-15T18:58:42.110Z,32.00
2018-12-15T19:01:11.050Z,30.40
2018-12-15T19:03:39.874Z,29.53
2018-12-15T19:06:08.786Z,20.53
2018-12-15T19:08:37.610Z,34.53
2018-12-15T19:11:06.446Z,28.53
2018-12-15T19:13:35.214Z,25.80
2018-12-15T19:16:04.054Z,18.63
2018-12-15T19:18:32.908Z,28.57
2018-12-15T19:21:01.827Z,25.63
2018-12-15T19:23:30.588Z,24.40
2018-12-15T19:25:59.456Z,21.30
2018-12-15T19:28:28.282Z,24.95
2018-12-15T19:31:03.571Z,24.50
2018-12-15T19:33:32.363Z,19.32
2018-12-15T19:36:01.267Z,25.57
2018-12-15T19:38:30.123Z,24.82
2018-12-15T19:40:58.904Z,31.00
2018-12-15T19:43:27.700Z,28.27
2018-12-15T19:45:56.495Z,25.73
2018-12-15T19:48:25.346Z,17.13
2018-12-15T19:50:54.121Z,21.93
2018-12-15T19:53:22.918Z,28.87
2018-12-15T19:55:51.712Z,21.10
2018-12-15T19:58:20.666Z,26.43
2018-12-15T20:00:49.484Z,27.30
2018-12-15T20:03:19.009Z,25.23
2018-12-15T20:05:47.855Z,24.37
2018-12-15T20:08:16.690Z,22.03
2018-12-15T20:10:45.470Z,21.77
2018-12-15T20:13:14.298Z,26.20
2018-12-15T20:15:43.206Z,35.23
2018-12-15T20:18:12.003Z,22.30
2018-12-15T20:23:43.851Z,23.00
2018-12-15T20:26:12.659Z,30.57
2018-12-15T20:28:41.497Z,27.37
2018-12-15T20:31:10.275Z,24.00
2018-12-15T20:33:39.149Z,23.53
2018-12-15T20:36:07.955Z,27.90
2018-12-15T20:38:36.833Z,28.30
2018-12-15T20:41:05.639Z,29.13
2018-12-15T20:43:34.470Z,26.17
2018-12-15T20:46:03.431Z,34.60
2018-12-15T20:48:32.278Z,26.83
2018-12-15T20:51:01.542Z,22.97
2018-12-15T20:53:30.557Z,34.00
2018-12-15T20:55:59.839Z,26.47
2018-12-15T20:58:28.755Z,35.70
2018-12-15T21:00:57.989Z,39.67
2018-12-15T21:03:26.922Z,22.80
2018-12-15T21:05:56.101Z,32.20
2018-12-15T21:08:25.744Z,29.23
2018-12-15T21:10:54.828Z,39.13
2018-12-15T21:13:23.765Z,30.30
2018-12-15T21:15:56.366Z,32.20
2018-12-15T21:18:25.291Z,36.13
2018-12-15T21:20:54.204Z,34.63
2018-12-15T21:23:23.517Z,29.03
2018-12-15T21:25:52.375Z,29.93
2018-12-15T21:28:21.267Z,29.07
2018-12-15T21:30:50.455Z,25.10
2018-12-15T21:33:19.350Z,33.60
2018-12-15T21:35:48.394Z,35.33
2018-12-15T21:38:17.263Z,41.67
2018-12-15T21:40:46.325Z,42.70
2018-12-15T21:43:15.284Z,55.07
2018-12-15T21:45:44.495Z,43.47
2018-12-15T21:48:14.124Z,42.73
2018-12-15T21:50:43.166Z,35.37
2018-12-15T21:53:12.157Z,34.83
2018-12-15T21:55:41.195Z,35.80
2018-12-15T21:58:10.379Z,28.27
2018-12-15T22:00:39.534Z,38.93
2018-12-15T22:03:08.415Z,30.90
2018-12-15T22:05:37.812Z,34.13
2018-12-15T22:08:07.151Z,32.97
2018-12-15T22:10:36.193Z,34.00
2018-12-15T22:13:05.473Z,24.40
2018-12-15T22:15:34.335Z,23.30
2018-12-15T22:18:03.463Z,25.00
2018-12-15T22:20:33.236Z,32.17
2018-12-15T22:23:02.525Z,29.83
2018-12-15T22:25:31.864Z,25.00
2018-12-15T22:28:01.207Z,27.80
2018-12-15T22:30:30.480Z,29.63
2018-12-15T22:32:59.456Z,26.33
2018-12-15T22:35:28.687Z,30.87
2018-12-15T22:37:57.934Z,23.23
2018-12-15T22:40:26.826Z,28.57
2018-12-15T22:42:55.614Z,18.47
2018-12-15T22:45:24.400Z,22.27
2018-12-15T22:47:53.237Z,21.47
2018-12-15T22:50:21.999Z,26.60
2018-12-15T22:52:51.171Z,31.03
2018-12-15T22:55:21.468Z,27.10
2018-12-15T22:57:50.730Z,28.60
2018-12-15T23:00:20.021Z,25.70
2018-12-15T23:02:49.375Z,23.93
2018-12-15T23:05:18.283Z,22.93
2018-12-15T23:07:47.553Z,26.00
2018-12-15T23:10:16.450Z,21.30
2018-12-15T23:12:45.851Z,23.17
2018-12-15T23:15:15.113Z,23.23
2018-12-15T23:17:44.416Z,20.50
2018-12-15T23:20:13.299Z,24.37
2018-12-15T23:22:42.080Z,34.07
2018-12-15T23:25:10.918Z,19.43
2018-12-15T23:27:40.051Z,22.43
2018-12-15T23:30:09.776Z,24.47
2018-12-15T23:32:39.079Z,19.90
2018-12-15T23:35:08.507Z,20.90
2018-12-15T23:37:37.732Z,25.87
2018-12-15T23:40:07.275Z,20.70
2018-12-15T23:42:36.162Z,20.53
2018-12-15T23:45:06.606Z,21.67
2018-12-15T23:47:35.510Z,26.23
2018-12-15T23:50:05.034Z,19.73
2018-12-15T23:52:34.295Z,25.50
2018-12-15T23:55:03.563Z,14.70
2018-12-15T23:57:32.824Z,18.17
